createdAt,value
2023-04-08T00:01:07.050Z,98383.31
2023-04-08T00:03:12.061Z,98391.00
2023-04-08T00:05:19.774Z,98385.69
2023-04-08T00:07:24.667Z,98387.38
2023-04-08T00:09:29.581Z,98388.22
2023-04-08T00:11:34.928Z,98385.72
2023-04-08T00:13:39.613Z,98384.28
2023-04-08T00:15:44.693Z,98388.84
2023-04-08T00:17:49.601Z,98389.78
2023-04-08T00:19:55.547Z,98386.41
2023-04-08T00:22:03.293Z,98387.38
2023-04-08T00:24:09.015Z,98387.38
2023-04-08T00:26:13.889Z,98385.84
2023-04-08T00:28:19.979Z,98386.59
2023-04-08T00:30:24.880Z,98392.59
2023-04-08T00:32:30.568Z,98387.38
2023-04-08T00:34:35.890Z,98382.97
2023-04-08T00:36:40.913Z,98384.72
2023-04-08T00:38:49.248Z,98392.72
2023-04-08T00:40:54.412Z,98388.47
2023-04-08T00:43:00.175Z,98387.66
2023-04-08T00:45:05.050Z,98390.44
2023-04-08T00:47:10.014Z,98393.16
2023-04-08T00:49:14.978Z,98386.38
2023-04-08T00:51:20.008Z,98393.47
2023-04-08T00:53:25.765Z,98389.28
2023-04-08T00:55:33.614Z,98394.56
2023-04-08T00:57:39.392Z,98396.59
2023-04-08T00:59:45.469Z,98404.53
2023-04-08T01:01:57.935Z,98401.13
2023-04-08T01:04:11.736Z,98404.63
2023-04-08T01:06:22.310Z,98409.84
2023-04-08T01:08:30.149Z,98404.69
2023-04-08T01:10:43.389Z,98410.09
2023-04-08T01:12:54.772Z,98401.50
2023-04-08T01:15:05.769Z,98404.94
2023-04-08T01:17:12.541Z,98410.13
2023-04-08T01:19:25.839Z,98413.50
2023-04-08T01:21:31.805Z,98415.16
2023-04-08T01:23:44.000Z,98412.44
2023-04-08T01:25:53.253Z,98409.75
2023-04-08T01:27:59.460Z,98409.72
2023-04-08T01:30:06.621Z,98414.84
2023-04-08T01:32:12.516Z,98413.00
2023-04-08T01:34:19.485Z,98417.22
2023-04-08T01:36:25.975Z,98412.75
2023-04-08T01:38:32.296Z,98410.22
2023-04-08T01:40:38.429Z,98409.66
2023-04-08T01:42:47.844Z,98411.59
2023-04-08T01:44:55.173Z,98410.13
2023-04-08T01:47:00.865Z,98406.84
2023-04-08T01:49:06.604Z,98408.63
2023-04-08T01:51:15.493Z,98407.63
2023-04-08T01:53:20.761Z,98406.75
2023-04-08T01:55:27.534Z,98412.78
2023-04-08T01:57:36.730Z,98408.44
2023-04-08T01:59:45.686Z,98404.19
2023-04-08T02:01:53.324Z,98405.94
2023-04-08T02:04:01.547Z,98406.00
2023-04-08T02:06:06.625Z,98412.13
2023-04-08T02:08:11.655Z,98411.41
2023-04-08T02:10:16.675Z,98406.25
2023-04-08T02:12:22.119Z,98407.25
2023-04-08T02:14:27.293Z,98409.38
2023-04-08T02:16:45.706Z,98407.63
2023-04-08T02:19:01.317Z,98412.03
2023-04-08T02:21:12.953Z,98411.97
2023-04-08T02:23:22.331Z,98413.69
2023-04-08T02:25:28.554Z,98411.34
2023-04-08T02:27:37.732Z,98410.97
2023-04-08T02:29:44.230Z,98417.56
2023-04-08T02:31:54.195Z,98417.41
2023-04-08T02:34:02.176Z,98413.78
2023-04-08T02:36:09.970Z,98419.63
2023-04-08T02:38:15.166Z,98422.13
2023-04-08T02:40:29.316Z,98426.38
2023-04-08T02:42:34.919Z,98419.47
2023-04-08T02:44:39.866Z,98428.91
2023-04-08T02:46:44.822Z,98428.91
2023-04-08T02:48:52.753Z,98427.16
2023-04-08T02:50:57.662Z,98424.56
2023-04-08T02:53:02.565Z,98426.31
2023-04-08T02:55:12.671Z,98427.16
2023-04-08T02:57:17.729Z,98432.91
2023-04-08T02:59:22.699Z,98430.59
2023-04-08T03:01:27.863Z,98427.00
2023-04-08T03:03:32.719Z,98427.91
2023-04-08T03:05:40.284Z,98428.66
2023-04-08T03:07:45.939Z,98435.03
2023-04-08T03:09:50.839Z,98433.19
2023-04-08T03:11:56.015Z,98431.34
2023-04-08T03:14:01.120Z,98436.63
2023-04-08T03:16:06.145Z,98434.13
2023-04-08T03:18:11.062Z,98432.28
2023-04-08T03:20:16.025Z,98429.66
2023-04-08T03:22:24.561Z,98429.56
2023-04-08T03:24:29.481Z,98439.00
2023-04-08T03:26:34.428Z,98435.47
2023-04-08T03:28:39.557Z,98439.84
2023-04-08T03:30:44.340Z,98441.69
2023-04-08T03:32:49.396Z,98436.69
2023-04-08T03:34:54.400Z,98454.84
2023-04-08T03:36:59.282Z,98444.59
2023-04-08T03:39:06.910Z,98447.19
2023-04-08T03:41:11.872Z,98444.69
2023-04-08T03:43:16.951Z,98449.19
2023-04-08T03:45:22.183Z,98452.75
2023-04-08T03:47:26.869Z,98444.22
2023-04-08T03:49:31.845Z,98446.88
2023-04-08T03:51:36.709Z,98444.38
2023-04-08T03:53:41.615Z,98441.81
2023-04-08T03:55:49.183Z,98442.63
2023-04-08T03:57:54.346Z,98443.47
2023-04-08T03:59:59.394Z,98448.66
2023-04-08T04:02:04.423Z,98447.97
2023-04-08T04:04:09.774Z,98448.00
2023-04-08T04:06:14.926Z,98452.28
2023-04-08T04:08:19.900Z,98454.88
2023-04-08T04:10:24.777Z,98451.44
2023-04-08T04:12:32.715Z,98454.19
2023-04-08T04:14:37.635Z,98448.09
2023-04-08T04:16:42.683Z,98455.84
2023-04-08T04:18:47.685Z,98456.75
2023-04-08T04:20:52.706Z,98453.53
2023-04-08T04:22:57.630Z,98455.34
2023-04-08T04:25:02.570Z,98462.38
2023-04-08T04:27:07.607Z,98468.66
2023-04-08T04:29:15.071Z,98467.09
2023-04-08T04:31:23.726Z,98464.59
2023-04-08T04:33:28.819Z,98472.53
2023-04-08T04:35:33.753Z,98470.94
2023-04-08T04:37:38.752Z,98478.16
2023-04-08T04:39:43.675Z,98478.34
2023-04-08T04:41:49.464Z,98479.25
2023-04-08T04:43:54.447Z,98479.19
2023-04-08T04:46:04.002Z,98479.94
2023-04-08T04:48:09.296Z,98484.13
2023-04-08T04:50:14.196Z,98478.91
2023-04-08T04:52:19.102Z,98474.28
2023-04-08T04:54:23.993Z,98474.72
2023-04-08T04:56:29.348Z,98479.75
2023-04-08T04:58:34.244Z,98483.03
2023-04-08T05:00:39.169Z,98485.34
2023-04-08T05:02:46.819Z,98479.94
2023-04-08T05:04:53.871Z,98487.53
2023-04-08T05:06:58.910Z,98488.28
2023-04-08T05:09:03.856Z,98492.53
2023-04-08T05:11:12.795Z,98484.66
2023-04-08T05:13:17.783Z,98494.09
2023-04-08T05:15:23.088Z,98490.56
2023-04-08T05:17:28.113Z,98487.84
2023-04-08T05:19:35.718Z,98491.38
2023-04-08T05:21:40.664Z,98493.84
2023-04-08T05:23:45.630Z,98498.91
2023-04-08T05:25:50.620Z,98499.13
2023-04-08T05:27:56.281Z,98502.63
2023-04-08T05:30:01.254Z,98505.97
2023-04-08T05:32:06.325Z,98505.03
2023-04-08T05:34:11.450Z,98510.25
2023-04-08T05:36:19.131Z,98512.88
2023-04-08T05:38:23.972Z,98514.59
2023-04-08T05:40:29.366Z,98510.31
2023-04-08T05:42:35.088Z,98513.75
2023-04-08T05:44:41.569Z,98513.91
2023-04-08T05:46:46.552Z,98521.84
2023-04-08T05:48:51.874Z,98525.47
2023-04-08T05:50:57.277Z,98528.72
2023-04-08T05:53:08.153Z,98522.56
2023-04-08T05:55:13.286Z,98525.28
2023-04-08T05:57:18.257Z,98521.78
2023-04-08T05:59:23.140Z,98523.56
2023-04-08T06:01:28.312Z,98532.16
2023-04-08T06:03:34.084Z,98535.94
2023-04-08T06:05:39.078Z,98533.94
2023-04-08T06:07:44.131Z,98538.09
2023-04-08T06:09:51.643Z,98536.34
2023-04-08T06:11:57.656Z,98539.75
2023-04-08T06:14:02.579Z,98542.34
2023-04-08T06:16:14.267Z,98544.00
2023-04-08T06:18:19.331Z,98548.31
2023-04-08T06:20:24.466Z,98550.47
2023-04-08T06:22:29.743Z,98555.44
2023-04-08T06:24:35.174Z,98556.19
2023-04-08T06:26:42.816Z,98564.84
2023-04-08T06:28:47.818Z,98556.00
2023-04-08T06:30:53.033Z,98550.47
2023-04-08T06:32:57.743Z,98557.34
2023-04-08T06:35:02.891Z,98563.00
2023-04-08T06:37:10.806Z,98569.44
2023-04-08T06:39:17.218Z,98573.78
2023-04-08T06:41:22.150Z,98571.53
2023-04-08T06:43:30.552Z,98579.38
2023-04-08T06:45:35.824Z,98578.13
2023-04-08T06:47:40.575Z,98580.91
2023-04-08T06:49:46.790Z,98594.00
2023-04-08T06:51:52.242Z,98602.72
2023-04-08T06:53:57.593Z,98601.97
2023-04-08T06:56:02.259Z,98596.22
2023-04-08T06:58:07.206Z,98602.38
2023-04-08T07:00:15.839Z,98604.13
2023-04-08T07:02:22.405Z,98613.69
2023-04-08T07:04:27.575Z,98610.72
2023-04-08T07:06:32.603Z,98608.81
2023-04-08T07:08:37.693Z,98615.38
2023-04-08T07:10:42.794Z,98617.47
2023-04-08T07:12:47.677Z,98621.47
2023-04-08T07:14:53.361Z,98621.13
2023-04-08T07:17:00.943Z,98632.66
2023-04-08T07:19:05.905Z,98630.53
2023-04-08T07:21:10.926Z,98629.41
2023-04-08T07:23:15.933Z,98625.13
2023-04-08T07:25:21.219Z,98632.00
2023-04-08T07:27:26.365Z,98637.47
2023-04-08T07:29:31.789Z,98635.84
2023-04-08T07:31:36.792Z,98637.16
2023-04-08T07:33:44.429Z,98639.75
2023-04-08T07:35:49.493Z,98637.78
2023-04-08T07:37:55.252Z,98640.13
2023-04-08T07:40:00.555Z,98642.88
2023-04-08T07:42:05.539Z,98631.09
2023-04-08T07:44:10.645Z,98638.53
2023-04-08T07:46:15.776Z,98636.63
2023-04-08T07:48:20.768Z,98640.38
2023-04-08T07:50:28.255Z,98648.97
2023-04-08T07:52:33.382Z,98651.72
2023-04-08T07:54:38.212Z,98649.44
2023-04-08T07:56:44.739Z,98652.09
2023-04-08T07:58:52.880Z,98654.50
2023-04-08T08:00:59.756Z,98654.41
2023-04-08T08:03:04.943Z,98661.94
2023-04-08T08:05:11.164Z,98661.31
2023-04-08T08:07:18.753Z,98663.97
2023-04-08T08:09:23.683Z,98669.72
2023-04-08T08:11:30.016Z,98664.53
2023-04-08T08:13:35.738Z,98664.38
2023-04-08T08:15:40.774Z,98670.03
2023-04-08T08:17:48.404Z,98668.97
2023-04-08T08:19:53.527Z,98670.47
2023-04-08T08:21:58.462Z,98676.22
2023-04-08T08:24:06.656Z,98669.97
2023-04-08T08:26:12.769Z,98674.16
2023-04-08T08:28:18.140Z,98675.78
2023-04-08T08:30:23.050Z,98676.56
2023-04-08T08:32:28.014Z,98678.09
2023-04-08T08:34:33.712Z,98680.69
2023-04-08T08:36:38.723Z,98679.75
2023-04-08T08:38:43.651Z,98682.34
2023-04-08T08:40:57.862Z,98681.44
2023-04-08T08:43:03.189Z,98683.00
2023-04-08T08:45:08.508Z,98679.81
2023-04-08T08:47:13.609Z,98678.47
2023-04-08T08:49:19.148Z,98688.00
2023-04-08T08:51:24.626Z,98692.03
2023-04-08T08:53:35.734Z,98687.09
2023-04-08T08:56:05.807Z,98687.53
2023-04-08T08:58:10.377Z,98687.88
2023-04-08T09:00:16.759Z,98696.38
2023-04-08T09:02:30.164Z,98693.88
2023-04-08T09:04:35.366Z,98690.38
2023-04-08T09:06:40.560Z,98689.88
2023-04-08T09:08:45.779Z,98702.75
2023-04-08T09:10:50.696Z,98704.13
2023-04-08T09:12:59.219Z,98695.66
2023-04-08T09:15:11.888Z,98701.19
2023-04-08T09:17:17.289Z,98697.38
2023-04-08T09:19:22.781Z,98693.28
2023-04-08T09:21:28.106Z,98697.31
2023-04-08T09:23:42.708Z,98711.63
2023-04-08T09:25:47.643Z,98709.47
2023-04-08T09:27:53.206Z,98708.69
2023-04-08T09:30:19.251Z,98727.16
2023-04-08T09:32:24.309Z,98712.25
2023-04-08T09:34:32.693Z,98706.81
2023-04-08T09:36:37.604Z,98712.41
2023-04-08T09:38:42.701Z,98715.94
2023-04-08T09:40:48.246Z,98715.75
2023-04-08T09:42:57.168Z,98721.91
2023-04-08T09:45:04.642Z,98724.47
2023-04-08T09:47:21.875Z,98715.72
2023-04-08T09:49:31.502Z,98721.63
2023-04-08T09:51:43.371Z,98719.63
2023-04-08T09:53:51.622Z,98721.28
2023-04-08T09:56:00.006Z,98715.22
2023-04-08T09:58:10.426Z,98715.16
2023-04-08T10:00:17.627Z,98716.75
2023-04-08T10:02:40.007Z,98718.50
2023-04-08T10:04:53.234Z,98718.28
2023-04-08T10:07:04.976Z,98720.91
2023-04-08T10:09:10.684Z,98724.22
2023-04-08T10:11:17.560Z,98720.03
2023-04-08T10:13:23.344Z,98715.63
2023-04-08T10:15:29.796Z,98719.16
2023-04-08T10:17:37.409Z,98717.69
2023-04-08T10:19:44.808Z,98717.44
2023-04-08T10:21:50.689Z,98717.66
2023-04-08T10:24:01.769Z,98716.16
2023-04-08T10:26:36.995Z,98710.81
2023-04-08T10:28:41.908Z,98701.44
2023-04-08T10:30:47.675Z,98709.69
2023-04-08T10:32:56.709Z,98708.56
2023-04-08T10:35:01.862Z,98708.84
2023-04-08T10:37:06.870Z,98705.56
2023-04-08T10:39:11.932Z,98704.22
2023-04-08T10:41:21.823Z,98701.25
2023-04-08T10:43:27.319Z,98694.25
2023-04-08T10:45:32.278Z,98696.84
2023-04-08T10:47:37.174Z,98704.75
2023-04-08T10:49:44.655Z,98703.25
2023-04-08T10:51:50.111Z,98700.59
2023-04-08T10:53:55.244Z,98692.47
2023-04-08T10:56:07.552Z,98700.81
2023-04-08T10:58:14.113Z,98696.78
2023-04-08T11:00:22.754Z,98693.72
2023-04-08T11:02:35.914Z,98698.59
2023-04-08T11:04:48.631Z,98689.91
2023-04-08T11:06:53.861Z,98689.69
2023-04-08T11:09:00.810Z,98690.59
2023-04-08T11:11:09.395Z,98692.66
2023-04-08T11:13:15.039Z,98696.09
2023-04-08T11:15:20.655Z,98696.66
2023-04-08T11:17:25.731Z,98698.59
2023-04-08T11:19:31.737Z,98689.16
2023-04-08T11:21:41.240Z,98693.63
2023-04-08T11:23:46.603Z,98693.44
2023-04-08T11:25:51.656Z,98696.81
2023-04-08T11:27:57.141Z,98694.84
2023-04-08T11:30:02.715Z,98697.34
2023-04-08T11:32:09.133Z,98694.78
2023-04-08T11:34:14.071Z,98695.25
2023-04-08T11:36:21.918Z,98696.03
2023-04-08T11:38:29.571Z,98695.84
2023-04-08T11:40:34.508Z,98693.41
2023-04-08T11:42:40.048Z,98697.75
2023-04-08T11:44:45.071Z,98698.19
2023-04-08T11:46:57.529Z,98694.97
2023-04-08T11:49:03.758Z,98694.00
2023-04-08T11:51:12.579Z,98691.63
2023-04-08T11:53:22.286Z,98686.28
2023-04-08T11:55:31.064Z,98689.03
2023-04-08T11:57:36.589Z,98703.94
2023-04-08T11:59:41.803Z,98695.91
2023-04-08T12:01:46.798Z,98692.69
2023-04-08T12:03:59.941Z,98697.94
2023-04-08T12:06:05.595Z,98690.34
2023-04-08T12:08:10.723Z,98687.72
2023-04-08T12:10:16.152Z,98690.47
2023-04-08T12:12:26.865Z,98694.94
2023-04-08T12:14:32.346Z,98690.66
2023-04-08T12:16:37.460Z,98697.09
2023-04-08T12:18:42.768Z,98699.78
2023-04-08T12:20:47.388Z,98699.31
2023-04-08T12:22:52.468Z,98692.38
2023-04-08T12:24:59.230Z,98692.13
2023-04-08T12:27:05.270Z,98691.16
2023-04-08T12:29:12.792Z,98683.06
2023-04-08T12:31:20.193Z,98686.28
2023-04-08T12:35:54.352Z,98692.34
2023-04-08T12:37:59.366Z,98691.63
2023-04-08T12:40:04.843Z,98688.84
2023-04-08T12:42:09.822Z,98688.25
2023-04-08T12:44:17.515Z,98686.66
2023-04-08T12:46:22.931Z,98684.97
2023-04-08T12:48:28.170Z,98686.56
2023-04-08T12:50:32.844Z,98686.81
2023-04-08T12:52:37.766Z,98680.09
2023-04-08T12:54:42.819Z,98685.50
2023-04-08T12:56:49.013Z,98687.53
2023-04-08T12:58:53.908Z,98679.25
2023-04-08T13:01:01.571Z,98684.19
2023-04-08T13:03:09.109Z,98684.13
2023-04-08T13:05:14.134Z,98685.03
2023-04-08T13:07:19.082Z,98680.78
2023-04-08T13:09:24.118Z,98685.81
2023-04-08T13:11:29.142Z,98683.72
2023-04-08T13:13:34.328Z,98684.56
2023-04-08T13:15:38.982Z,98685.41
2023-04-08T13:17:46.558Z,98688.97
2023-04-08T13:19:52.719Z,98688.75
2023-04-08T13:21:57.690Z,98695.59
2023-04-08T13:24:02.640Z,98696.78
2023-04-08T13:26:07.671Z,98696.03
2023-04-08T13:28:12.663Z,98698.94
2023-04-08T13:30:17.751Z,98703.00
2023-04-08T13:32:22.755Z,98698.84
2023-04-08T13:34:30.660Z,98699.88
2023-04-08T13:36:35.600Z,98700.66
2023-04-08T13:38:40.436Z,98702.16
2023-04-08T13:40:46.638Z,98703.72
2023-04-08T13:42:52.820Z,98706.19
2023-04-08T13:44:57.452Z,98700.34
2023-04-08T13:47:02.888Z,98698.09
2023-04-08T13:49:07.853Z,98696.06
2023-04-08T13:51:15.345Z,98696.69
2023-04-08T13:53:20.351Z,98697.00
2023-04-08T13:55:25.595Z,98692.88
2023-04-08T13:57:30.881Z,98683.16
2023-04-08T13:59:35.610Z,98688.34
2023-04-08T14:01:40.870Z,98679.97
2023-04-08T14:03:50.267Z,98684.75
2023-04-08T14:05:55.252Z,98675.63
2023-04-08T14:08:02.721Z,98682.75
2023-04-08T14:10:08.918Z,98685.31
2023-04-08T14:12:13.902Z,98676.22
2023-04-08T14:14:18.835Z,98681.28
2023-04-08T14:16:23.772Z,98669.63
2023-04-08T14:18:29.459Z,98676.09
2023-04-08T14:20:35.693Z,98677.47
2023-04-08T14:22:40.695Z,98676.97
2023-04-08T14:24:48.295Z,98675.81
2023-04-08T14:26:53.244Z,98673.78
2023-04-08T14:28:58.408Z,98674.91
2023-04-08T14:31:05.003Z,98672.53
2023-04-08T14:33:10.071Z,98684.13
2023-04-08T14:35:15.052Z,98673.75
2023-04-08T14:37:20.736Z,98679.31
2023-04-08T14:39:25.690Z,98664.88
2023-04-08T14:41:33.191Z,98667.63
2023-04-08T14:43:38.189Z,98665.75
2023-04-08T14:45:45.055Z,98668.22
2023-04-08T14:47:50.174Z,98666.06
2023-04-08T14:49:55.044Z,98668.06
2023-04-08T14:52:00.003Z,98669.13
2023-04-08T14:54:04.926Z,98661.13
2023-04-08T14:56:11.541Z,98666.72
2023-04-08T14:58:20.100Z,98668.34
2023-04-08T15:00:25.019Z,98668.28
2023-04-08T15:02:30.015Z,98667.06
2023-04-08T15:04:35.138Z,98663.34
2023-04-08T15:06:40.671Z,98669.59
2023-04-08T15:08:46.018Z,98669.78
2023-04-08T15:10:50.973Z,98677.06
2023-04-08T15:12:56.039Z,98675.69
2023-04-08T15:15:06.353Z,98683.47
2023-04-08T15:17:11.645Z,98683.75
2023-04-08T15:19:18.813Z,98689.16
2023-04-08T15:21:23.820Z,98684.00
2023-04-08T15:23:29.519Z,98691.09
2023-04-08T15:25:37.383Z,98688.19
2023-04-08T15:27:45.113Z,98700.13
2023-04-08T15:29:50.584Z,98704.69
2023-04-08T15:31:58.145Z,98699.53
2023-04-08T15:34:03.770Z,98698.19
2023-04-08T15:36:09.351Z,98699.16
2023-04-08T15:38:14.356Z,98703.66
2023-04-08T15:40:22.470Z,98702.16
2023-04-08T15:42:27.926Z,98703.94
2023-04-08T15:44:35.018Z,98706.81
2023-04-08T15:46:40.004Z,98698.22
2023-04-08T15:48:47.561Z,98701.91
2023-04-08T15:50:52.606Z,98710.94
2023-04-08T15:52:57.638Z,98710.13
2023-04-08T15:55:02.809Z,98707.75
2023-04-08T15:57:07.825Z,98707.06
2023-04-08T15:59:12.771Z,98720.06
2023-04-08T16:01:18.916Z,98722.09
2023-04-08T16:03:24.061Z,98721.34
2023-04-08T16:05:31.714Z,98718.50
2023-04-08T16:07:37.610Z,98729.69
2023-04-08T16:09:42.572Z,98727.84
2023-04-08T16:11:47.634Z,98729.66
2023-04-08T16:13:52.743Z,98729.47
2023-04-08T16:15:58.423Z,98732.00
2023-04-08T16:18:04.790Z,98732.75
2023-04-08T16:20:10.896Z,98738.72
2023-04-08T16:22:18.360Z,98734.06
2023-04-08T16:24:23.270Z,98736.69
2023-04-08T16:26:29.572Z,98742.84
2023-04-08T16:28:34.570Z,98746.59
2023-04-08T16:30:43.100Z,98747.66
2023-04-08T16:32:48.854Z,98751.56
2023-04-08T16:34:53.742Z,98751.56
2023-04-08T16:36:58.758Z,98748.56
2023-04-08T16:39:06.319Z,98752.25
2023-04-08T16:41:11.269Z,98756.16
2023-04-08T16:43:16.166Z,98751.03
2023-04-08T16:45:21.430Z,98757.91
2023-04-08T16:47:26.775Z,98757.91
2023-04-08T16:49:31.739Z,98765.25
2023-04-08T16:51:36.704Z,98763.72
2023-04-08T16:53:41.704Z,98774.78
2023-04-08T16:55:49.216Z,98770.75
2023-04-08T16:57:54.856Z,98773.56
2023-04-08T16:59:59.715Z,98770.16
2023-04-08T17:02:04.767Z,98766.44
2023-04-08T17:04:10.179Z,98769.13
2023-04-08T17:06:17.485Z,98776.25
2023-04-08T17:08:23.960Z,98783.41
2023-04-08T17:10:29.259Z,98780.19
2023-04-08T17:12:36.739Z,98787.69
2023-04-08T17:14:41.627Z,98791.00
2023-04-08T17:16:46.704Z,98789.25
2023-04-08T17:18:53.008Z,98791.66
2023-04-08T17:20:57.864Z,98796.88
2023-04-08T17:23:06.385Z,98797.91
2023-04-08T17:25:12.057Z,98800.41
2023-04-08T17:27:17.010Z,98802.03
2023-04-08T17:29:24.493Z,98801.41
2023-04-08T17:31:29.597Z,98805.84
2023-04-08T17:33:34.590Z,98800.84
2023-04-08T17:35:46.391Z,98799.19
2023-04-08T17:37:51.347Z,98804.69
2023-04-08T17:39:56.288Z,98805.72
2023-04-08T17:42:02.249Z,98808.31
2023-04-08T17:44:07.588Z,98810.28
2023-04-08T17:46:14.937Z,98814.34
2023-04-08T17:48:20.226Z,98816.75
2023-04-08T17:50:25.090Z,98817.66
2023-04-08T17:52:30.062Z,98818.69
2023-04-08T17:54:35.044Z,98819.59
2023-04-08T17:56:40.096Z,98824.84
2023-04-08T17:58:45.015Z,98831.69
2023-04-08T18:00:50.364Z,98829.28
2023-04-08T18:02:58.030Z,98831.88
2023-04-08T18:05:04.103Z,98830.03
2023-04-08T18:07:09.246Z,98830.97
2023-04-08T18:09:14.142Z,98839.78
2023-04-08T18:11:19.895Z,98842.47
2023-04-08T18:13:24.772Z,98843.38
2023-04-08T18:15:29.642Z,98849.44
2023-04-08T18:17:34.508Z,98847.72
2023-04-08T18:19:42.324Z,98850.16
2023-04-08T18:21:48.831Z,98854.91
2023-04-08T18:23:53.941Z,98865.03
2023-04-08T18:25:59.076Z,98873.72
2023-04-08T18:28:04.096Z,98872.97
2023-04-08T18:30:11.825Z,98872.13
2023-04-08T18:32:16.868Z,98876.25
2023-04-08T18:34:23.104Z,98878.69
2023-04-08T18:36:30.574Z,98884.72
2023-04-08T18:38:36.350Z,98873.59
2023-04-08T18:40:42.320Z,98881.41
2023-04-08T18:42:47.255Z,98889.28
2023-04-08T18:44:53.638Z,98888.25
2023-04-08T18:46:59.087Z,98883.00
2023-04-08T18:49:04.018Z,98890.94
2023-04-08T18:51:08.907Z,98896.88
2023-04-08T18:53:16.636Z,98899.47
2023-04-08T18:55:22.205Z,98905.81
2023-04-08T18:57:27.254Z,98898.31
2023-04-08T18:59:35.435Z,98904.16
2023-04-08T19:01:41.894Z,98898.22
2023-04-08T19:03:47.011Z,98912.16
2023-04-08T19:05:52.067Z,98904.63
2023-04-08T19:07:57.868Z,98908.97
2023-04-08T19:10:05.570Z,98917.56
2023-04-08T19:12:10.477Z,98919.38
2023-04-08T19:14:15.765Z,98918.53
2023-04-08T19:16:20.751Z,98914.94
2023-04-08T19:18:26.267Z,98919.53
2023-04-08T19:20:31.203Z,98926.22
2023-04-08T19:22:36.114Z,98927.00
2023-04-08T19:24:41.186Z,98918.34
2023-04-08T19:26:49.595Z,98923.44
2023-04-08T19:28:54.694Z,98920.94
2023-04-08T19:30:59.604Z,98927.06
2023-04-08T19:33:04.612Z,98929.53
2023-04-08T19:35:10.856Z,98938.31
2023-04-08T19:37:15.827Z,98932.38
2023-04-08T19:39:21.200Z,98932.31
2023-04-08T19:41:26.461Z,98922.75
2023-04-08T19:43:34.347Z,98922.75
2023-04-08T19:45:39.326Z,98928.69
2023-04-08T19:47:47.234Z,98926.94
2023-04-08T19:49:52.757Z,98937.31
2023-04-08T19:51:58.680Z,98937.31
2023-04-08T19:54:03.569Z,98942.69
2023-04-08T19:56:08.688Z,98941.84
2023-04-08T19:58:13.606Z,98936.66
2023-04-08T20:00:21.460Z,98935.97
2023-04-08T20:02:26.819Z,98938.84
2023-04-08T20:04:32.196Z,98941.47
2023-04-08T20:06:37.621Z,98946.56
2023-04-08T20:08:42.268Z,98943.19
2023-04-08T20:10:49.283Z,98936.25
2023-04-08T20:12:55.320Z,98943.22
2023-04-08T20:15:00.208Z,98944.91
2023-04-08T20:17:07.808Z,98944.78
2023-04-08T20:19:13.213Z,98944.81
2023-04-08T20:21:18.381Z,98950.19
2023-04-08T20:23:24.400Z,98955.31
2023-04-08T20:25:29.317Z,98949.16
2023-04-08T20:27:35.902Z,98953.41
2023-04-08T20:29:42.155Z,98953.34
2023-04-08T20:31:49.921Z,98949.94
2023-04-08T20:33:57.610Z,98954.25
2023-04-08T20:36:02.590Z,98954.28
2023-04-08T20:38:08.213Z,98955.09
2023-04-08T20:40:18.104Z,98950.94
2023-04-08T20:42:23.993Z,98950.91
2023-04-08T20:44:29.518Z,98953.50
2023-04-08T20:46:35.321Z,98952.59
2023-04-08T20:48:40.903Z,98960.34
2023-04-08T20:50:50.768Z,98955.22
2023-04-08T20:52:55.773Z,98955.38
2023-04-08T20:55:00.756Z,98954.63
2023-04-08T20:57:05.701Z,98955.53
2023-04-08T20:59:10.843Z,98959.81
2023-04-08T21:01:16.064Z,98958.28
2023-04-08T21:03:20.875Z,98959.13
2023-04-08T21:05:25.832Z,98960.97
2023-04-08T21:07:33.348Z,98965.25
2023-04-08T21:09:38.283Z,98960.88
2023-04-08T21:11:43.134Z,98959.06
2023-04-08T21:13:49.039Z,98963.41
2023-04-08T21:15:54.351Z,98964.09
2023-04-08T21:17:59.326Z,98965.75
2023-04-08T21:20:04.698Z,98964.84
2023-04-08T21:22:09.675Z,98965.00
2023-04-08T21:24:17.154Z,98962.41
2023-04-08T21:26:22.116Z,98964.09
2023-04-08T21:28:27.357Z,98964.00
2023-04-08T21:30:31.986Z,98969.31
2023-04-08T21:32:37.301Z,98965.88
2023-04-08T21:34:42.057Z,98968.59
2023-04-08T21:36:46.941Z,98969.72
2023-04-08T21:38:52.071Z,98970.63
2023-04-08T21:40:59.923Z,98965.25
2023-04-08T21:43:04.811Z,98970.47
2023-04-08T21:45:11.025Z,98971.28
2023-04-08T21:47:16.049Z,98970.47
2023-04-08T21:49:20.981Z,98973.00
2023-04-08T21:51:26.589Z,98966.19
2023-04-08T21:53:31.737Z,98966.28
2023-04-08T21:55:36.616Z,98968.88
2023-04-08T21:57:44.312Z,98966.28
2023-04-08T21:59:49.303Z,98967.97
2023-04-08T22:01:54.236Z,98965.38
2023-04-08T22:03:59.845Z,98968.81
2023-04-08T22:06:04.960Z,98974.00
2023-04-08T22:08:09.933Z,98970.56
2023-04-08T22:10:14.947Z,98971.47
2023-04-08T22:12:19.937Z,98972.31
2023-04-08T22:14:27.484Z,98973.91
2023-04-08T22:16:32.561Z,98974.66
2023-04-08T22:18:37.523Z,98968.63
2023-04-08T22:20:42.378Z,98978.25
2023-04-08T22:22:47.583Z,98973.97
2023-04-08T22:24:52.711Z,98977.50
2023-04-08T22:26:57.780Z,98979.22
2023-04-08T22:29:02.674Z,98983.56
2023-04-08T22:31:12.292Z,98979.28
2023-04-08T22:33:17.349Z,98983.63
2023-04-08T22:35:22.358Z,98977.50
2023-04-08T22:37:27.408Z,98971.72
2023-04-08T22:39:32.267Z,98978.59
2023-04-08T22:41:37.133Z,98976.84
2023-04-08T22:43:42.040Z,98975.16
2023-04-08T22:45:46.984Z,98977.75
2023-04-08T22:47:54.593Z,98969.97
2023-04-08T22:49:59.503Z,98981.16
2023-04-08T22:52:04.531Z,98969.78
2023-04-08T22:54:09.439Z,98973.38
2023-04-08T22:56:14.427Z,98975.00
2023-04-08T22:58:19.338Z,98974.97
2023-04-08T23:00:24.612Z,98971.47
2023-04-08T23:02:29.433Z,98969.78
2023-04-08T23:04:36.929Z,98977.66
2023-04-08T23:06:41.827Z,98974.16
2023-04-08T23:08:46.711Z,98968.97
2023-04-08T23:10:51.608Z,98971.56
2023-04-08T23:12:56.519Z,98978.69
2023-04-08T23:15:01.438Z,98973.63
2023-04-08T23:17:06.459Z,98973.63
2023-04-08T23:19:11.647Z,98972.03
2023-04-08T23:21:18.874Z,98971.28
2023-04-08T23:23:24.890Z,98970.44
2023-04-08T23:25:29.741Z,98972.13
2023-04-08T23:27:34.661Z,98973.81
2023-04-08T23:29:39.531Z,98970.41
2023-04-08T23:31:44.409Z,98969.53
2023-04-08T23:33:49.313Z,98969.44
2023-04-08T23:35:54.186Z,98963.41
2023-04-08T23:38:01.705Z,98960.81
2023-04-08T23:40:07.296Z,98967.81
2023-04-08T23:42:12.139Z,98973.03
2023-04-08T23:44:17.008Z,98970.41
2023-04-08T23:46:21.942Z,98968.66
2023-04-08T23:48:27.008Z,98974.69
2023-04-08T23:50:31.884Z,98974.56
2023-04-08T23:52:37.547Z,98979.69
2023-04-08T23:54:45.074Z,98973.63
2023-04-08T23:56:49.983Z,98975.31
2023-04-08T23:58:55.043Z,98976.13
